CMA CGM Herodote — MFEP — position and weather

sailwx.info

Track history (hours):
 
Tides and Currents Weather Stations Pressure Air Temp Water Temp Dewpoint Dewpoint Depression Visibility Wind Speed Wind Dir Waves Ship Positions

CMA CGM Herodote

Last reported at 2016-Jul-28 11:09 UTC. Time now 2016-Jul-29 19:49 UTC.
Position N 36°23' E 034°29'.

Length 170 m; draft 7.1 m.

Type: Ship (hazmat cat A). MMSI: 235051085.

Date/timePositionNaut miles runAvg speedWind from/ knotsBaromVisibWave heightAir tempDewpointWater temp
2016-Jul-28 11:09N 36°23' E 034°29'22 1.2
2016-Jul-27 16:30N 36°42' E 034°40'0 0.0
2016-Jul-27 15:30N 36°42' E 034°40'0 0.0
2016-Jul-27 13:33N 36°42' E 034°40'66 2.5
2016-Jul-26 11:28N 35°51' E 035°32'1618.2
2016-Jul-26 10:34N 35°35' E 035°27'1818.1
2016-Jul-26 09:34N 35°17' E 035°23'1817.9
2016-Jul-26 08:33N 34°60' E 035°21'1817.7
2016-Jul-26 07:34N 34°42' E 035°19'2217.7
2016-Jul-26 06:19N 34°20' E 035°15'1317.6
2016-Jul-26 05:33N 34°07' E 035°13'27 1.4
2016-Jul-25 10:26N 33°47' E 034°52'5210.5
2016-Jul-25 05:26N 33°24' E 033°56'1110.7
2016-Jul-25 04:26N 33°19' E 033°44'1110.7
2016-Jul-25 03:22N 33°14' E 033°32'1910.7
2016-Jul-25 01:33N 33°05' E 033°11'1110.6
2016-Jul-25 00:33N 33°01' E 033°00'1110.6
2016-Jul-24 23:30N 32°56' E 032°48'1010.6
2016-Jul-24 22:33N 32°51' E 032°37'1110.6
2016-Jul-24 21:33N 32°46' E 032°26'1110.6
2016-Jul-24 20:33N 32°42' E 032°15'1110.6
2016-Jul-24 19:33N 32°37' E 032°04'1110.8
2016-Jul-24 18:33N 32°32' E 031°52'1110.8
2016-Jul-24 17:33N 32°27' E 031°41'1110.7
2016-Jul-24 16:33N 32°22' E 031°29'1110.9
2016-Jul-24 15:33N 32°18' E 031°18'1110.7
2016-Jul-24 14:33N 32°13' E 031°07'93 5.2
2016-Jul-23 20:29N 31°09' E 029°47'0 0.0
2016-Jul-23 19:32N 31°09' E 029°47'75514.8
2016-Jul-21 16:33N 35°29' E 015°40'1717.2
2016-Jul-21 15:33N 35°35' E 015°20'1717.2
2016-Jul-21 14:33N 35°41' E 015°00'1616.5
2016-Jul-21 13:33N 35°45' E 014°41'8 7.0
2016-Jul-21 12:28N 35°49' E 014°33'0 0.0
2016-Jul-21 11:31N 35°49' E 014°33'0 0.0
2016-Jul-21 10:31N 35°49' E 014°33'0 0.0
2016-Jul-21 09:28N 35°49' E 014°33'0 0.0
2016-Jul-21 08:31N 35°49' E 014°33'0 0.0
2016-Jul-21 06:19N 35°49' E 014°33'0 0.0
2016-Jul-21 00:31N 35°49' E 014°33'0 0.0
2016-Jul-20 23:28N 35°49' E 014°33'0 0.0
2016-Jul-20 22:28N 35°49' E 014°33'0 0.0
2016-Jul-20 21:31N 35°49' E 014°33'0 0.0
2016-Jul-20 20:31N 35°49' E 014°33'0 0.0
2016-Jul-20 19:33N 35°49' E 014°33'4 3.6
2016-Jul-20 18:33N 35°48' E 014°37'4 4.1
2016-Jul-20 17:33N 35°51' E 014°40'0 0.2
2016-Jul-20 16:33N 35°51' E 014°40'0 0.0
2016-Jul-20 15:33N 35°51' E 014°40'0 0.0
2016-Jul-20 14:30N 35°51' E 014°40'0 0.0
2016-Jul-20 13:33N 35°51' E 014°40'0 0.0
2016-Jul-20 12:30N 35°51' E 014°40'29 7.3
2016-Jul-20 08:34N 35°55' E 014°05'2416.4
2016-Jul-20 07:06N 36°07' E 013°39'916.0
2016-Jul-20 06:34N 36°12' E 013°31'1616.1
2016-Jul-20 05:34N 36°20' E 013°13'5116.6
2016-Jul-20 02:30N 36°47' E 012°20'1616.7
2016-Jul-20 01:33N 36°56' E 012°03'1716.8
2016-Jul-20 00:33N 37°04' E 011°45'1716.7
2016-Jul-19 23:33N 37°13' E 011°27'1716.9
2016-Jul-19 22:33N 37°22' E 011°09'1716.8
2016-Jul-19 21:34N 37°27' E 010°49'1716.6
2016-Jul-19 20:33N 37°31' E 010°29'1716.7
2016-Jul-19 19:31N 37°34' E 010°07'1616.9
2016-Jul-19 18:33N 37°30' E 009°47'1716.5
2016-Jul-19 17:33N 37°26' E 009°27'1616.4
2016-Jul-19 16:33N 37°22' E 009°07'1616.2
2016-Jul-19 15:33N 37°18' E 008°47'1616.1
2016-Jul-19 14:33N 37°18' E 008°27'1615.9
2016-Jul-19 13:32N 37°18' E 008°07'1615.9
2016-Jul-19 12:33N 37°18' E 007°47'13416.6
2016-Jul-19 04:28N 37°12' E 004°58'1617.2
2016-Jul-19 03:33N 37°10' E 004°39'1717.3
2016-Jul-19 02:33N 37°09' E 004°17'5516.6
2016-Jul-18 23:13N 37°06' E 003°08'1116.7
2016-Jul-18 22:33N 37°05' E 002°54'1616.2
2016-Jul-18 21:33N 36°60' E 002°35'1616.5
2016-Jul-18 20:33N 36°56' E 002°15'1716.6
2016-Jul-18 19:33N 36°52' E 001°54'1716.5
2016-Jul-18 18:33N 36°48' E 001°34'1716.6
2016-Jul-18 17:33N 36°45' E 001°14'1716.7
2016-Jul-18 16:33N 36°41' E 000°54'1716.6
2016-Jul-18 15:33N 36°39' E 000°33'1616.4
2016-Jul-18 14:33N 36°36' E 000°13'1716.6
2016-Jul-18 13:32N 36°34' W 000°08'1716.9
2016-Jul-18 12:31N 36°32' W 000°29'1515.7
2016-Jul-18 11:32N 36°29' W 000°48'  
Track history (hours):
 
Tides and Currents Weather Stations Pressure Air Temp Water Temp Dewpoint Dewpoint Depression Visibility Wind Speed Wind Dir Waves Ship Positions

CMA CGM Herodote

Last reported at 2016-Jul-28 11:09 UTC. Time now 2016-Jul-29 19:50 UTC.
Position N 36°23' E 034°29'.

Length 170 m; draft 7.1 m.

Type: Ship (hazmat cat A). MMSI: 235051085.

Date/timePositionNaut miles runAvg speedWind from/ knotsBaromVisibWave heightAir tempDewpointWater temp
2016-Jul-28 11:09N 36°23' E 034°29'22 1.2
2016-Jul-27 16:30N 36°42' E 034°40'0 0.0
2016-Jul-27 15:30N 36°42' E 034°40'0 0.0
2016-Jul-27 13:33N 36°42' E 034°40'66 2.5
2016-Jul-26 11:28N 35°51' E 035°32'1618.2
2016-Jul-26 10:34N 35°35' E 035°27'1818.1
2016-Jul-26 09:34N 35°17' E 035°23'1817.9
2016-Jul-26 08:33N 34°60' E 035°21'1817.7
2016-Jul-26 07:34N 34°42' E 035°19'2217.7
2016-Jul-26 06:19N 34°20' E 035°15'1317.6
2016-Jul-26 05:33N 34°07' E 035°13'27 1.4
2016-Jul-25 10:26N 33°47' E 034°52'5210.5
2016-Jul-25 05:26N 33°24' E 033°56'1110.7
2016-Jul-25 04:26N 33°19' E 033°44'1110.7
2016-Jul-25 03:22N 33°14' E 033°32'1910.7
2016-Jul-25 01:33N 33°05' E 033°11'1110.6
2016-Jul-25 00:33N 33°01' E 033°00'1110.6
2016-Jul-24 23:30N 32°56' E 032°48'1010.6
2016-Jul-24 22:33N 32°51' E 032°37'1110.6
2016-Jul-24 21:33N 32°46' E 032°26'1110.6
2016-Jul-24 20:33N 32°42' E 032°15'1110.6
2016-Jul-24 19:33N 32°37' E 032°04'1110.8
2016-Jul-24 18:33N 32°32' E 031°52'1110.8
2016-Jul-24 17:33N 32°27' E 031°41'1110.7
2016-Jul-24 16:33N 32°22' E 031°29'1110.9
2016-Jul-24 15:33N 32°18' E 031°18'1110.7
2016-Jul-24 14:33N 32°13' E 031°07'93 5.2
2016-Jul-23 20:29N 31°09' E 029°47'0 0.0
2016-Jul-23 19:32N 31°09' E 029°47'75514.8
2016-Jul-21 16:33N 35°29' E 015°40'1717.2
2016-Jul-21 15:33N 35°35' E 015°20'1717.2
2016-Jul-21 14:33N 35°41' E 015°00'1616.5
2016-Jul-21 13:33N 35°45' E 014°41'8 7.0
2016-Jul-21 12:28N 35°49' E 014°33'0 0.0
2016-Jul-21 11:31N 35°49' E 014°33'0 0.0
2016-Jul-21 10:31N 35°49' E 014°33'0 0.0
2016-Jul-21 09:28N 35°49' E 014°33'0 0.0
2016-Jul-21 08:31N 35°49' E 014°33'0 0.0
2016-Jul-21 06:19N 35°49' E 014°33'0 0.0
2016-Jul-21 00:31N 35°49' E 014°33'0 0.0
2016-Jul-20 23:28N 35°49' E 014°33'0 0.0
2016-Jul-20 22:28N 35°49' E 014°33'0 0.0
2016-Jul-20 21:31N 35°49' E 014°33'0 0.0
2016-Jul-20 20:31N 35°49' E 014°33'0 0.0
2016-Jul-20 19:33N 35°49' E 014°33'4 3.6
2016-Jul-20 18:33N 35°48' E 014°37'4 4.1
2016-Jul-20 17:33N 35°51' E 014°40'0 0.2
2016-Jul-20 16:33N 35°51' E 014°40'0 0.0
2016-Jul-20 15:33N 35°51' E 014°40'0 0.0
2016-Jul-20 14:30N 35°51' E 014°40'0 0.0
2016-Jul-20 13:33N 35°51' E 014°40'0 0.0
2016-Jul-20 12:30N 35°51' E 014°40'29 7.3
2016-Jul-20 08:34N 35°55' E 014°05'2416.4
2016-Jul-20 07:06N 36°07' E 013°39'916.0
2016-Jul-20 06:34N 36°12' E 013°31'1616.1
2016-Jul-20 05:34N 36°20' E 013°13'5116.6
2016-Jul-20 02:30N 36°47' E 012°20'1616.7
2016-Jul-20 01:33N 36°56' E 012°03'1716.8
2016-Jul-20 00:33N 37°04' E 011°45'1716.7
2016-Jul-19 23:33N 37°13' E 011°27'1716.9
2016-Jul-19 22:33N 37°22' E 011°09'1716.8
2016-Jul-19 21:34N 37°27' E 010°49'1716.6
2016-Jul-19 20:33N 37°31' E 010°29'1716.7
2016-Jul-19 19:31N 37°34' E 010°07'1616.9
2016-Jul-19 18:33N 37°30' E 009°47'1716.5
2016-Jul-19 17:33N 37°26' E 009°27'1616.4
2016-Jul-19 16:33N 37°22' E 009°07'1616.2
2016-Jul-19 15:33N 37°18' E 008°47'1616.1
2016-Jul-19 14:33N 37°18' E 008°27'1615.9
2016-Jul-19 13:32N 37°18' E 008°07'1615.9
2016-Jul-19 12:33N 37°18' E 007°47'13416.6
2016-Jul-19 04:28N 37°12' E 004°58'1617.2
2016-Jul-19 03:33N 37°10' E 004°39'1717.3
2016-Jul-19 02:33N 37°09' E 004°17'5516.6
2016-Jul-18 23:13N 37°06' E 003°08'1116.7
2016-Jul-18 22:33N 37°05' E 002°54'1616.2
2016-Jul-18 21:33N 36°60' E 002°35'1616.5
2016-Jul-18 20:33N 36°56' E 002°15'1716.6
2016-Jul-18 19:33N 36°52' E 001°54'1716.5
2016-Jul-18 18:33N 36°48' E 001°34'1716.6
2016-Jul-18 17:33N 36°45' E 001°14'1716.7
2016-Jul-18 16:33N 36°41' E 000°54'1716.6
2016-Jul-18 15:33N 36°39' E 000°33'1616.4
2016-Jul-18 14:33N 36°36' E 000°13'1716.6
2016-Jul-18 13:32N 36°34' W 000°08'1716.9
2016-Jul-18 12:31N 36°32' W 000°29'1515.7
2016-Jul-18 11:32N 36°29' W 000°48'  

Dump ship's entire track history